Time;durP1;ratioP1;P1;durP2;ratioP2;P2;SDS_P1;SDS_P2;PMS_P1;PMS_P2;Temp;Humidity;BMP_temperature;BMP_pressure;BME280_temperature;BME280_humidity;BME280_pressure;Samples;Min_cycle;Max_cycle;Signal;HPM_P1;HPM_P2
2023/10/31 00:01:48;;;;;;;;;;;;;;;19.38;47.09;99649.03;5059516;28;19928;-86
2023/10/31 00:04:14;;;;;;;;;;;;;;;19.41;47.14;99650.34;5056529;28;19920;-86
2023/10/31 00:06:39;;;;;;;;;;;;;;;19.44;47.19;99666.75;5056428;28;19932;-86
2023/10/31 00:09:04;;;;;;;;;;;;;;;19.48;47.02;99666.88;5059157;28;20012;-87
2023/10/31 00:11:30;;;;;;;;;;;;;;;19.49;46.96;99661.09;5056529;28;19964;-86
2023/10/31 00:13:55;;;;;;;;;;;;;;;19.49;46.80;99650.25;5059663;28;19973;-86
2023/10/31 00:16:20;;;;;;;;;;;;;;;19.47;46.88;99640.84;5064043;28;19921;-87
2023/10/31 00:18:46;;;;;;;;;;;;;;;19.45;47.02;99627.59;5062873;28;20041;-86
2023/10/31 00:21:11;;;;;;;;;;;;;;;19.42;47.00;99617.41;5061786;28;20502;-87
2023/10/31 00:23:46;;;;;;;;;;;;;;;19.39;46.99;99615.34;5056887;28;20031;-86
2023/10/31 00:26:11;;;;;;;;;;;;;;;19.33;47.18;99598.44;5056910;28;20625;-87
2023/10/31 00:28:37;;;;;;;;;;;;;;;19.31;47.12;99578.97;5057768;28;19931;-86
2023/10/31 00:31:03;;;;;;;;;;;;;;;19.36;47.15;99596.19;5058849;28;19924;-86
2023/10/31 00:33:29;;;;;;;;;;;;;;;19.33;47.26;99581.38;5060895;28;19916;-87
2023/10/31 00:35:54;;;;;;;;;;;;;;;19.28;47.45;99565.28;5059633;28;20729;-86
2023/10/31 00:38:19;;;;;;;;;;;;;;;19.28;47.58;99573.44;5061295;28;19928;-87
2023/10/31 00:40:45;;;;;;;;;;;;;;;19.32;47.56;99560.78;5058694;28;20013;-86
2023/10/31 00:43:10;;;;;;;;;;;;;;;19.35;47.68;99562.81;5057708;28;20324;-87
2023/10/31 00:45:35;;;;;;;;;;;;;;;19.37;47.41;99557.03;5061757;28;19924;-86
2023/10/31 00:48:01;;;;;;;;;;;;;;;19.38;47.29;99555.91;5061073;28;19920;-87
2023/10/31 00:50:26;;;;;;;;;;;;;;;19.39;47.36;99560.22;5059282;28;20007;-87
2023/10/31 00:52:51;;;;;;;;;;;;;;;19.38;47.51;99564.84;5065221;28;19921;-86
2023/10/31 00:55:16;;;;;;;;;;;;;;;19.38;47.40;99555.91;5065021;28;19924;-87
2023/10/31 00:57:42;;;;;;;;;;;;;;;19.38;47.39;99551.28;5064217;28;19927;-87
2023/10/31 01:00:09;;;;;;;;;;;;;;;19.40;47.74;99551.75;5063696;28;19917;-86
2023/10/31 01:02:34;;;;;;;;;;;;;;;19.46;47.65;99546.88;5064091;28;19923;-86
2023/10/31 01:05:00;;;;;;;;;;;;;;;19.49;47.73;99536.13;5062332;28;19921;-87
2023/10/31 01:07:25;;;;;;;;;;;;;;;19.54;47.51;99540.59;5062718;28;19916;-86
2023/10/31 01:09:50;;;;;;;;;;;;;;;19.58;47.41;99514.34;5060644;28;19920;-87
2023/10/31 01:12:16;;;;;;;;;;;;;;;19.60;47.39;99525.69;5066547;28;20004;-86
2023/10/31 01:14:41;;;;;;;;;;;;;;;19.62;47.48;99523.41;5066507;28;20019;-87
2023/10/31 01:17:07;;;;;;;;;;;;;;;19.61;47.22;99511.75;5066610;28;19962;-87
2023/10/31 01:19:32;;;;;;;;;;;;;;;19.64;47.44;99514.91;5063314;28;19966;-87
2023/10/31 01:21:57;;;;;;;;;;;;;;;19.64;47.52;99517.63;5062031;28;19917;-87
2023/10/31 01:24:23;;;;;;;;;;;;;;;19.64;47.50;99537.44;5063902;28;19935;-87
2023/10/31 01:26:48;;;;;;;;;;;;;;;19.59;47.54;99530.31;5064883;28;19930;-87
2023/10/31 01:29:14;;;;;;;;;;;;;;;19.56;47.46;99530.16;5066283;28;20828;-86
2023/10/31 01:31:40;;;;;;;;;;;;;;;19.55;47.87;99534.81;5067085;28;19947;-87
2023/10/31 01:34:06;;;;;;;;;;;;;;;19.52;47.68;99538.19;5065732;28;19973;-86
2023/10/31 01:36:31;;;;;;;;;;;;;;;19.50;47.59;99526.06;5064019;28;20027;-86
2023/10/31 01:38:56;;;;;;;;;;;;;;;19.47;47.81;99535.69;5061201;28;20422;-86
2023/10/31 01:41:22;;;;;;;;;;;;;;;19.47;48.04;99534.91;5063600;28;19916;-86
2023/10/31 01:43:47;;;;;;;;;;;;;;;19.49;47.83;99525.28;5061165;28;19924;-87
2023/10/31 01:46:12;;;;;;;;;;;;;;;19.50;47.94;99524.16;5069532;28;19956;-87
2023/10/31 01:48:38;;;;;;;;;;;;;;;19.50;47.86;99526.84;5070748;28;19920;-86
2023/10/31 01:51:04;;;;;;;;;;;;;;;19.50;47.95;99524.16;5064087;28;19978;-87
2023/10/31 01:53:31;;;;;;;;;;;;;;;19.51;47.94;99525.72;5068391;28;20400;-86
2023/10/31 01:55:57;;;;;;;;;;;;;;;19.52;48.22;99508.28;5061599;28;19925;-85
2023/10/31 01:58:25;;;;;;;;;;;;;;;19.53;48.06;99512.59;5065705;28;20392;-87
2023/10/31 02:00:51;;;;;;;;;;;;;;;19.52;47.89;99491.19;5060714;28;19963;-86
2023/10/31 02:03:16;;;;;;;;;;;;;;;19.51;48.03;99497.78;5062557;28;19966;-87
2023/10/31 02:05:41;;;;;;;;;;;;;;;19.50;47.97;99477.16;5064440;28;19924;-87
2023/10/31 02:08:10;;;;;;;;;;;;;;;19.46;48.15;99474.34;5061478;28;19928;-87
2023/10/31 02:10:35;;;;;;;;;;;;;;;19.44;48.36;99473.09;5060519;28;19920;-87
2023/10/31 02:13:26;;;;;;;;;;;;;;;19.41;48.18;99463.72;5061602;28;20461;-86
2023/10/31 02:15:52;;;;;;;;;;;;;;;19.38;48.32;99450.78;5067347;28;19961;-87
2023/10/31 02:18:18;;;;;;;;;;;;;;;19.35;48.37;99454.19;5064715;28;19920;-86
2023/10/31 02:20:43;;;;;;;;;;;;;;;19.36;48.34;99438.66;5064991;28;19921;-86
2023/10/31 02:23:09;;;;;;;;;;;;;;;19.36;48.29;99436.75;5062742;28;20458;-87
2023/10/31 02:25:34;;;;;;;;;;;;;;;19.37;48.46;99445.69;5063449;28;19927;-87
2023/10/31 02:27:59;;;;;;;;;;;;;;;19.35;48.52;99437.09;5060753;28;20018;-87
2023/10/31 02:30:25;;;;;;;;;;;;;;;19.32;48.43;99428.50;5060600;28;20283;-87
2023/10/31 02:32:50;;;;;;;;;;;;;;;19.31;48.65;99423.41;5063815;28;20368;-87
2023/10/31 02:35:16;;;;;;;;;;;;;;;19.30;48.92;99419.09;5063130;28;20027;-87
2023/10/31 02:37:41;;;;;;;;;;;;;;;19.31;48.82;99416.03;5064006;28;19966;-87
2023/10/31 02:40:07;;;;;;;;;;;;;;;19.35;48.96;99416.16;5063970;28;20399;-87
2023/10/31 02:42:33;;;;;;;;;;;;;;;19.36;48.75;99411.50;5066658;28;19922;-87
2023/10/31 02:44:58;;;;;;;;;;;;;;;19.37;48.89;99408.47;5065570;28;20372;-87
2023/10/31 02:47:23;;;;;;;;;;;;;;;19.39;48.91;99406.22;5067437;28;19920;-87
2023/10/31 02:49:49;;;;;;;;;;;;;;;19.41;48.71;99414.81;5063770;28;19919;-86
2023/10/31 02:52:14;;;;;;;;;;;;;;;19.41;48.78;99406.66;5058591;28;20399;-87
2023/10/31 02:54:39;;;;;;;;;;;;;;;19.44;48.63;99397.03;5056558;28;19924;-87
2023/10/31 02:57:04;;;;;;;;;;;;;;;19.44;48.68;99391.63;5060679;28;19928;-86
2023/10/31 02:59:30;;;;;;;;;;;;;;;19.40;48.67;99375.22;5063432;28;20295;-87
2023/10/31 03:01:56;;;;;;;;;;;;;;;19.37;48.94;99375.06;5064147;28;20368;-87
2023/10/31 03:04:21;;;;;;;;;;;;;;;19.39;48.98;99389.91;5061769;28;19978;-86
2023/10/31 03:06:47;;;;;;;;;;;;;;;19.41;49.20;99395.81;5061818;28;19928;-86
2023/10/31 03:09:12;;;;;;;;;;;;;;;19.43;48.95;99382.69;5060113;28;19917;-87
2023/10/31 03:11:37;;;;;;;;;;;;;;;19.44;49.07;99378.81;5065059;28;20049;-87
2023/10/31 03:14:03;;;;;;;;;;;;;;;19.46;48.87;99368.41;5058664;28;20408;-87
2023/10/31 03:16:28;;;;;;;;;;;;;;;19.46;48.84;99373.06;5061603;28;19916;-86
2023/10/31 03:18:53;;;;;;;;;;;;;;;19.46;49.09;99356.75;5062470;28;19935;-87
2023/10/31 03:21:19;;;;;;;;;;;;;;;19.47;49.04;99342.81;5063289;28;19916;-87
2023/10/31 03:23:52;;;;;;;;;;;;;;;19.48;48.99;99340.91;5063854;28;20343;-86
2023/10/31 03:26:18;;;;;;;;;;;;;;;19.47;49.26;99345.53;5065658;28;19929;-86
2023/10/31 03:28:44;;;;;;;;;;;;;;;19.47;49.24;99350.97;5064978;28;20411;-86
2023/10/31 03:31:09;;;;;;;;;;;;;;;19.47;49.10;99345.53;5062007;28;19974;-87
2023/10/31 03:33:35;;;;;;;;;;;;;;;19.48;49.24;99333.53;5060423;28;20309;-86
2023/10/31 03:36:00;;;;;;;;;;;;;;;19.48;49.04;99328.09;5060066;28;19921;-86
2023/10/31 03:38:25;;;;;;;;;;;;;;;19.47;49.16;99325.75;5056611;28;19924;-86
2023/10/31 03:40:51;;;;;;;;;;;;;;;19.48;49.47;99325.41;5059821;28;19985;-86
2023/10/31 03:43:16;;;;;;;;;;;;;;;19.49;49.31;99332.41;5057798;28;20703;-86
2023/10/31 03:45:41;;;;;;;;;;;;;;;19.50;49.14;99325.84;5064477;28;19932;-86
2023/10/31 03:48:06;;;;;;;;;;;;;;;19.51;49.49;99323.91;5061363;28;19994;-85
2023/10/31 03:50:32;;;;;;;;;;;;;;;19.54;49.17;99321.34;5061374;28;19921;-86
2023/10/31 03:52:57;;;;;;;;;;;;;;;19.55;49.27;99322.13;5060495;28;19920;-86
2023/10/31 03:55:22;;;;;;;;;;;;;;;19.53;49.08;99316.22;5061948;28;20224;-86
2023/10/31 03:57:48;;;;;;;;;;;;;;;19.48;49.23;99316.47;5061629;28;19931;-86
2023/10/31 04:00:13;;;;;;;;;;;;;;;19.45;49.25;99311.72;5062383;28;20597;-86
2023/10/31 04:02:41;;;;;;;;;;;;;;;19.42;49.29;99306.97;5061784;28;19922;-86
2023/10/31 04:05:07;;;;;;;;;;;;;;;19.38;49.39;99319.63;5057449;28;19920;-85
2023/10/31 04:07:32;;;;;;;;;;;;;;;19.36;49.40;99321.88;5059405;28;20011;-86
2023/10/31 04:09:57;;;;;;;;;;;;;;;19.36;49.43;99309.09;5063479;28;19920;-86
2023/10/31 04:12:23;;;;;;;;;;;;;;;19.36;49.61;99298.25;5059015;28;19931;-87
2023/10/31 04:14:48;;;;;;;;;;;;;;;19.36;49.55;99305.59;5059273;28;19920;-86
2023/10/31 04:17:13;;;;;;;;;;;;;;;19.33;49.57;99301.66;5054343;28;19987;-85
2023/10/31 04:19:39;;;;;;;;;;;;;;;19.31;49.45;99293.03;5060296;28;20444;-87
2023/10/31 04:22:04;;;;;;;;;;;;;;;19.32;49.60;99303.56;5056792;28;19930;-86
2023/10/31 04:24:29;;;;;;;;;;;;;;;19.32;49.63;99292.72;5060964;28;19925;-85
2023/10/31 04:26:54;;;;;;;;;;;;;;;19.31;49.66;99298.47;5053110;28;19920;-86
2023/10/31 04:29:20;;;;;;;;;;;;;;;19.31;49.88;99291.13;5059297;28;19924;-87
2023/10/31 04:31:45;;;;;;;;;;;;;;;19.34;49.75;99289.66;5059330;28;19924;-86
2023/10/31 04:34:11;;;;;;;;;;;;;;;19.35;49.69;99291.22;5059228;28;19920;-86
2023/10/31 04:36:36;;;;;;;;;;;;;;;19.34;49.73;99295.06;5059932;28;20502;-86
2023/10/31 04:39:01;;;;;;;;;;;;;;;19.31;49.79;99298.47;5058957;28;19999;-85
2023/10/31 04:41:27;;;;;;;;;;;;;;;19.28;49.85;99291.03;5058140;28;19939;-85
2023/10/31 04:43:52;;;;;;;;;;;;;;;19.28;49.92;99291.81;5058959;28;20684;-86
2023/10/31 04:46:17;;;;;;;;;;;;;;;19.26;49.92;99294.06;5065066;28;19928;-85
2023/10/31 04:48:43;;;;;;;;;;;;;;;19.26;50.10;99293.28;5059115;28;20062;-86
2023/10/31 04:51:08;;;;;;;;;;;;;;;19.26;49.86;99290.56;5058175;28;20571;-85
2023/10/31 04:53:34;;;;;;;;;;;;;;;19.27;49.82;99294.88;5062816;28;19995;-85
2023/10/31 04:55:59;;;;;;;;;;;;;;;19.27;49.94;99297.59;5061684;28;19920;-85
2023/10/31 04:58:24;;;;;;;;;;;;;;;19.24;50.00;99288.19;5062351;28;19924;-85
2023/10/31 05:00:50;;;;;;;;;;;;;;;19.25;50.21;99291.72;5059160;28;20011;-85
2023/10/31 05:03:15;;;;;;;;;;;;;;;19.25;50.11;99289.00;5059031;28;19932;-84
2023/10/31 05:05:40;;;;;;;;;;;;;;;19.25;50.08;99287.06;5059876;28;20724;-85
2023/10/31 05:08:06;;;;;;;;;;;;;;;19.27;50.13;99284.81;5063140;28;19965;-85
2023/10/31 05:10:31;;;;;;;;;;;;;;;19.28;50.11;99291.81;5062056;28;20395;-84
2023/10/31 05:12:56;;;;;;;;;;;;;;;19.28;50.06;99280.94;5060537;28;19925;-85
2023/10/31 05:15:22;;;;;;;;;;;;;;;19.30;50.20;99277.88;5058799;28;19948;-84
2023/10/31 05:17:47;;;;;;;;;;;;;;;19.32;50.06;99272.91;5058333;28;19924;-84
2023/10/31 05:20:13;;;;;;;;;;;;;;;19.34;50.09;99273.34;5055865;28;19928;-84
2023/10/31 05:22:38;;;;;;;;;;;;;;;19.33;50.26;99278.00;5062358;28;20003;-85
2023/10/31 05:25:05;;;;;;;;;;;;;;;19.36;50.18;99275.72;5059430;28;19929;-84
2023/10/31 05:27:30;;;;;;;;;;;;;;;19.37;50.17;99275.38;5057929;28;20011;-84
2023/10/31 05:29:55;;;;;;;;;;;;;;;19.36;50.12;99273.78;5057913;28;20297;-84
2023/10/31 05:32:21;;;;;;;;;;;;;;;19.38;49.89;99276.97;5059956;28;19959;-84
2023/10/31 05:34:46;;;;;;;;;;;;;;;19.33;49.97;99267.13;5060367;28;19912;-84
2023/10/31 05:37:11;;;;;;;;;;;;;;;19.28;49.90;99272.00;5059965;28;19924;-84
2023/10/31 05:39:36;;;;;;;;;;;;;;;19.24;50.01;99269.19;5057108;28;19932;-84
2023/10/31 05:42:02;;;;;;;;;;;;;;;19.18;49.96;99275.97;5056436;28;20380;-84
2023/10/31 05:44:28;;;;;;;;;;;;;;;19.13;50.00;99278.13;5060172;28;19917;-84
2023/10/31 05:46:54;;;;;;;;;;;;;;;19.09;50.13;99267.16;5059615;28;20296;-84
2023/10/31 05:49:19;;;;;;;;;;;;;;;19.08;50.23;99264.78;5064106;28;20014;-83
2023/10/31 05:51:45;;;;;;;;;;;;;;;19.10;50.33;99266.03;5056289;28;19920;-84
2023/10/31 05:54:10;;;;;;;;;;;;;;;19.10;50.27;99262.53;5058114;28;19920;-84
2023/10/31 05:56:36;;;;;;;;;;;;;;;19.05;50.31;99262.75;5060396;28;19928;-84
2023/10/31 05:59:01;;;;;;;;;;;;;;;19.02;50.44;99256.84;5061883;28;19916;-84
2023/10/31 06:01:27;;;;;;;;;;;;;;;19.03;50.35;99257.69;5063198;28;19955;-84
2023/10/31 06:03:52;;;;;;;;;;;;;;;19.05;50.50;99257.34;5060607;28;20414;-84
2023/10/31 06:06:17;;;;;;;;;;;;;;;19.07;50.19;99261.28;5062010;28;19924;-84
2023/10/31 06:08:43;;;;;;;;;;;;;;;19.06;50.37;99258.91;5059053;28;20580;-85
2023/10/31 06:11:08;;;;;;;;;;;;;;;19.04;50.39;99261.97;5062674;28;19931;-84
2023/10/31 06:13:33;;;;;;;;;;;;;;;19.02;50.41;99256.84;5058021;28;19955;-85
2023/10/31 06:16:00;;;;;;;;;;;;;;;19.05;50.44;99268.19;5057950;28;19928;-85
2023/10/31 06:18:26;;;;;;;;;;;;;;;19.04;50.38;99270.13;5060015;28;19928;-84
2023/10/31 06:20:52;;;;;;;;;;;;;;;19.05;50.27;99271.69;5060806;28;19917;-85
2023/10/31 06:23:17;;;;;;;;;;;;;;;19.04;50.45;99282.91;5063353;28;19921;-85
2023/10/31 06:25:42;;;;;;;;;;;;;;;18.98;50.61;99283.09;5063189;28;20239;-85
2023/10/31 06:28:08;;;;;;;;;;;;;;;18.97;50.39;99281.53;5058835;28;19940;-85
2023/10/31 06:30:33;;;;;;;;;;;;;;;18.97;50.50;99288.88;5058838;28;19920;-84
2023/10/31 06:32:59;;;;;;;;;;;;;;;18.96;50.30;99292.72;5060364;28;19924;-84
2023/10/31 06:35:24;;;;;;;;;;;;;;;18.91;50.65;99291.03;5060232;28;20040;-84
2023/10/31 06:37:51;;;;;;;;;;;;;;;18.92;50.40;99291.81;5061958;28;19920;-84
2023/10/31 06:40:16;;;;;;;;;;;;;;;18.88;50.37;99288.22;5058861;28;20444;-84
2023/10/31 06:42:41;;;;;;;;;;;;;;;18.80;50.79;99292.59;5057275;28;20014;-84
2023/10/31 06:45:07;;;;;;;;;;;;;;;18.86;50.90;99295.91;5059894;28;19964;-85
2023/10/31 06:47:32;;;;;;;;;;;;;;;18.84;50.71;99290.78;5063557;28;20014;-84
2023/10/31 06:49:57;;;;;;;;;;;;;;;18.91;50.71;99307.31;5058736;28;20050;-84
2023/10/31 06:52:23;;;;;;;;;;;;;;;18.92;50.73;99310.81;5059920;28;20415;-85
2023/10/31 06:54:49;;;;;;;;;;;;;;;18.88;50.78;99310.72;5056294;28;20005;-84
2023/10/31 06:57:15;;;;;;;;;;;;;;;18.89;50.80;99309.56;5057578;28;19923;-85
2023/10/31 06:59:41;;;;;;;;;;;;;;;18.87;51.02;99322.69;5057566;28;19924;-85
2023/10/31 07:02:06;;;;;;;;;;;;;;;18.87;50.85;99317.25;5060592;28;20453;-85
2023/10/31 07:04:32;;;;;;;;;;;;;;;18.86;50.95;99321.13;5060481;28;20595;-86
2023/10/31 07:06:57;;;;;;;;;;;;;;;18.83;50.92;99319.03;5056600;28;20900;-86
2023/10/31 07:09:23;;;;;;;;;;;;;;;18.82;51.23;99317.47;5060407;28;20521;-85
2023/10/31 07:11:48;;;;;;;;;;;;;;;18.90;51.03;99318.50;5061321;28;20009;-86
2023/10/31 07:14:14;;;;;;;;;;;;;;;18.92;51.35;99322.47;5060559;28;19920;-86
2023/10/31 07:16:40;;;;;;;;;;;;;;;18.94;51.09;99324.84;5059421;28;19923;-85
2023/10/31 07:19:05;;;;;;;;;;;;;;;18.96;50.99;99331.50;5059044;28;20023;-86
2023/10/31 07:21:30;;;;;;;;;;;;;;;19.00;50.97;99334.34;5057614;28;20274;-85
2023/10/31 07:23:56;;;;;;;;;;;;;;;18.98;51.03;99342.81;5060036;28;19931;-86
2023/10/31 07:26:21;;;;;;;;;;;;;;;18.99;50.82;99338.19;5054942;28;19920;-86
2023/10/31 07:28:48;;;;;;;;;;;;;;;18.94;50.93;99336.47;5060067;28;19917;-86
2023/10/31 07:31:13;;;;;;;;;;;;;;;18.92;51.24;99341.47;5057463;28;19974;-85
2023/10/31 07:33:39;;;;;;;;;;;;;;;18.91;51.26;99342.59;5059207;28;19920;-86
2023/10/31 07:36:04;;;;;;;;;;;;;;;18.94;51.49;99347.34;5060514;28;19920;-87
2023/10/31 07:38:29;;;;;;;;;;;;;;;18.97;51.36;99345.88;5057394;28;20838;-85
2023/10/31 07:40:55;;;;;;;;;;;;;;;18.98;51.37;99342.03;5057817;28;20015;-85
2023/10/31 07:43:20;;;;;;;;;;;;;;;19.01;51.20;99353.00;5058533;28;19925;-85
2023/10/31 07:45:45;;;;;;;;;;;;;;;19.02;51.47;99360.00;5057192;28;20316;-86
2023/10/31 07:48:11;;;;;;;;;;;;;;;19.08;51.46;99351.66;5058232;28;19956;-86
2023/10/31 07:50:36;;;;;;;;;;;;;;;19.10;51.27;99354.81;5059958;28;19924;-86
2023/10/31 07:53:01;;;;;;;;;;;;;;;19.10;51.48;99352.91;5057655;28;20338;-86
2023/10/31 07:55:26;;;;;;;;;;;;;;;19.09;51.23;99362.19;5059396;28;19999;-85
2023/10/31 07:57:53;;;;;;;;;;;;;;;19.10;51.29;99365.69;5059920;28;19920;-85
2023/10/31 08:00:18;;;;;;;;;;;;;;;19.10;51.24;99366.47;5060485;28;20512;-86
2023/10/31 08:02:43;;;;;;;;;;;;;;;19.05;51.51;99366.72;5059815;28;20400;-86
2023/10/31 08:05:10;;;;;;;;;;;;;;;19.05;51.50;99366.72;5064805;28;20291;-85
2023/10/31 08:07:35;;;;;;;;;;;;;;;19.03;51.45;99371.69;5060124;28;20497;-85
2023/10/31 08:10:00;;;;;;;;;;;;;;;19.02;51.70;99362.72;5057195;28;20027;-86
2023/10/31 08:12:25;;;;;;;;;;;;;;;19.05;51.75;99357.78;5060161;28;19917;-85
2023/10/31 08:14:51;;;;;;;;;;;;;;;19.08;51.85;99357.09;5055032;28;19927;-85
2023/10/31 08:17:16;;;;;;;;;;;;;;;19.10;51.68;99361.03;5056748;28;20298;-86
2023/10/31 08:19:42;;;;;;;;;;;;;;;19.12;51.54;99361.50;5059756;28;20032;-85
2023/10/31 08:22:07;;;;;;;;;;;;;;;19.11;51.74;99361.84;5057811;28;19925;-85
2023/10/31 08:24:35;;;;;;;;;;;;;;;19.11;51.70;99362.63;5057340;28;19928;-83
2023/10/31 08:27:01;;;;;;;;;;;;;;;19.11;51.57;99369.97;5053166;28;19926;-85
2023/10/31 08:29:28;;;;;;;;;;;;;;;19.08;51.77;99367.94;5054359;28;21791;-85
2023/10/31 08:31:54;;;;;;;;;;;;;;;19.11;51.86;99372.69;5058439;28;19931;-85
2023/10/31 08:34:19;;;;;;;;;;;;;;;19.11;52.14;99381.63;5061855;28;20667;-85
2023/10/31 08:36:44;;;;;;;;;;;;;;;19.13;51.80;99370.44;5055888;28;19928;-84
2023/10/31 08:39:09;;;;;;;;;;;;;;;19.17;52.01;99379.47;5054556;28;20013;-85
2023/10/31 08:41:37;;;;;;;;;;;;;;;19.18;52.01;99378.34;5055686;28;19924;-85
2023/10/31 08:44:03;;;;;;;;;;;;;;;19.19;52.00;99382.66;5057332;28;20536;-86
2023/10/31 08:46:28;;;;;;;;;;;;;;;19.24;51.91;99377.81;5058309;28;19920;-85
2023/10/31 08:48:54;;;;;;;;;;;;;;;19.22;52.30;99387.41;5066150;28;19932;-85
2023/10/31 08:51:19;;;;;;;;;;;;;;;19.26;52.00;99393.75;5060767;28;20433;-85
2023/10/31 08:53:44;;;;;;;;;;;;;;;19.27;52.03;99400.78;5051702;28;19924;-85
2023/10/31 08:56:10;;;;;;;;;;;;;;;19.21;52.14;99394.78;5055978;28;19925;-84
2023/10/31 08:58:35;;;;;;;;;;;;;;;19.19;52.23;99397.00;5056236;28;19927;-85
2023/10/31 09:01:00;;;;;;;;;;;;;;;19.15;52.18;99401.53;5059048;28;19950;-84
2023/10/31 09:03:26;;;;;;;;;;;;;;;19.17;52.37;99399.28;5057249;28;19928;-86
2023/10/31 09:05:51;;;;;;;;;;;;;;;19.15;52.39;99401.53;5057788;28;20380;-86
2023/10/31 09:08:16;;;;;;;;;;;;;;;19.15;52.76;99406.19;5051948;28;19955;-85
2023/10/31 09:10:45;;;;;;;;;;;;;;;19.18;52.72;99402.78;5057776;28;20474;-86
2023/10/31 09:13:11;;;;;;;;;;;;;;;19.23;52.51;99402.59;5062902;28;20039;-84
2023/10/31 09:15:36;;;;;;;;;;;;;;;19.22;52.78;99409.16;5062048;28;19995;-86
2023/10/31 09:18:02;;;;;;;;;;;;;;;19.23;52.67;99408.00;5054131;28;20300;-85
2023/10/31 09:20:27;;;;;;;;;;;;;;;19.19;52.76;99416.03;5057331;28;19924;-85
2023/10/31 09:22:53;;;;;;;;;;;;;;;19.24;52.78;99410.38;5058560;28;19963;-86
2023/10/31 09:25:18;;;;;;;;;;;;;;;19.29;52.48;99412.09;5062656;28;19970;-85
2023/10/31 09:27:43;;;;;;;;;;;;;;;19.21;52.46;99413.78;5061517;28;20027;-85
2023/10/31 09:30:09;;;;;;;;;;;;;;;19.18;52.67;99422.56;5061006;28;19921;-85
2023/10/31 09:32:34;;;;;;;;;;;;;;;19.21;52.45;99416.50;5063612;28;19932;-85
2023/10/31 09:35:00;;;;;;;;;;;;;;;19.22;52.01;99420.81;5061119;28;19928;-84
2023/10/31 09:37:25;;;;;;;;;;;;;;;19.15;52.06;99422.47;5060128;28;20404;-85
2023/10/31 09:39:50;;;;;;;;;;;;;;;19.12;52.15;99425.84;5061221;28;20634;-85
2023/10/31 09:42:16;;;;;;;;;;;;;;;19.07;52.43;99431.50;5061924;28;19920;-87
2023/10/31 09:44:41;;;;;;;;;;;;;;;19.08;52.34;99441.25;5059768;28;19983;-84
2023/10/31 09:47:07;;;;;;;;;;;;;;;19.11;52.27;99438.66;5061100;28;20605;-84
2023/10/31 09:49:32;;;;;;;;;;;;;;;19.13;52.29;99441.81;5063991;28;19927;-85
2023/10/31 09:51:59;;;;;;;;;;;;;;;19.11;51.83;99448.72;5058692;28;20391;-88
2023/10/31 09:54:25;;;;;;;;;;;;;;;19.05;51.89;99439.22;5063162;28;20010;-85
2023/10/31 09:56:50;;;;;;;;;;;;;;;19.01;51.55;99450.72;5061299;28;19921;-84
2023/10/31 09:59:16;;;;;;;;;;;;;;;18.99;51.33;99452.19;5062851;28;19920;-84
2023/10/31 10:01:41;;;;;;;;;;;;;;;18.88;51.33;99457.25;5062065;28;19964;-83
2023/10/31 10:04:07;;;;;;;;;;;;;;;18.83;50.99;99462.88;5058173;28;20571;-85
2023/10/31 10:06:32;;;;;;;;;;;;;;;18.79;51.03;99464.66;5059951;28;19928;-85
2023/10/31 10:08:57;;;;;;;;;;;;;;;18.81;50.91;99475.19;5058019;28;19921;-85
2023/10/31 10:11:23;;;;;;;;;;;;;;;18.80;50.27;99496.09;5060939;28;20372;-85
2023/10/31 10:13:48;;;;;;;;;;;;;;;18.68;50.52;99485.22;5058368;28;19924;-85
2023/10/31 10:16:27;;;;;;;;;;;;;;;18.68;50.05;99490.63;5060895;28;19925;-85
2023/10/31 10:18:52;;;;;;;;;;;;;;;18.62;50.18;99491.91;5058428;28;19932;-84
2023/10/31 10:21:17;;;;;;;;;;;;;;;18.61;49.97;99504.69;5062464;28;19920;-85
2023/10/31 10:23:48;;;;;;;;;;;;;;;18.57;50.20;99498.34;5060663;28;19925;-84
2023/10/31 10:26:13;;;;;;;;;;;;;;;18.55;50.36;99502.50;5060507;28;19932;-85
2023/10/31 10:28:38;;;;;;;;;;;;;;;18.60;50.06;99503.09;5064851;28;19920;-85
2023/10/31 10:31:04;;;;;;;;;;;;;;;18.55;50.19;99511.44;5065087;28;20482;-85
2023/10/31 10:33:29;;;;;;;;;;;;;;;18.55;50.15;99513.38;5059613;28;20307;-85
2023/10/31 10:35:55;;;;;;;;;;;;;;;18.49;50.14;99517.38;5062580;28;19916;-85
2023/10/31 10:38:22;;;;;;;;;;;;;;;18.48;50.13;99513.09;5058951;28;20541;-85
2023/10/31 10:40:48;;;;;;;;;;;;;;;18.44;50.06;99518.38;5059790;28;19970;-84
2023/10/31 10:43:17;;;;;;;;;;;;;;;18.47;49.71;99516.91;5061516;28;19925;-85
2023/10/31 10:45:45;;;;;;;;;;;;;;;18.42;50.06;99510.56;5055669;28;19936;-85
2023/10/31 10:48:12;;;;;;;;;;;;;;;18.42;50.04;99524.13;5059137;28;19924;-84
2023/10/31 10:50:41;;;;;;;;;;;;;;;18.46;49.98;99532.41;5053415;28;19932;-85
2023/10/31 10:53:08;;;;;;;;;;;;;;;18.51;49.93;99520.59;5060239;28;19959;-84
2023/10/31 10:55:35;;;;;;;;;;;;;;;18.51;49.52;99534.94;5056801;28;19943;-85
2023/10/31 10:58:05;;;;;;;;;;;;;;;18.51;49.57;99545.00;5052742;28;19956;-85
2023/10/31 11:00:30;;;;;;;;;;;;;;;18.48;49.73;99540.19;5052098;28;19931;-86
2023/10/31 11:02:56;;;;;;;;;;;;;;;18.52;49.58;99546.59;5053984;28;20355;-86
2023/10/31 11:05:23;;;;;;;;;;;;;;;18.53;49.53;99542.75;5057178;28;19929;-85
2023/10/31 11:07:49;;;;;;;;;;;;;;;18.55;49.31;99545.91;5054804;28;19924;-85
2023/10/31 11:10:14;;;;;;;;;;;;;;;18.49;49.35;99539.06;5055396;28;19920;-86
2023/10/31 11:12:40;;;;;;;;;;;;;;;18.51;49.54;99545.00;5057600;28;20817;-85
2023/10/31 11:15:07;;;;;;;;;;;;;;;18.54;49.13;99544.34;5059810;28;19921;-85
2023/10/31 11:17:37;;;;;;;;;;;;;;;18.57;49.04;99539.03;5053469;28;19920;-85
2023/10/31 11:20:03;;;;;;;;;;;;;;;18.56;48.76;99540.16;5059715;28;19920;-86
2023/10/31 11:22:43;;;;;;;;;;;;;;;18.56;48.73;99544.78;5064651;28;19923;-84
2023/10/31 11:25:10;;;;;;;;;;;;;;;18.50;48.99;99530.63;5059032;28;19921;-85
2023/10/31 11:27:36;;;;;;;;;;;;;;;18.60;48.76;99534.88;5056823;28;19962;-86
2023/10/31 11:30:04;;;;;;;;;;;;;;;18.63;48.71;99547.78;5058495;28;19920;-86
2023/10/31 11:32:31;;;;;;;;;;;;;;;18.66;48.42;99547.91;5059953;28;19920;-85
2023/10/31 11:34:56;;;;;;;;;;;;;;;18.67;48.49;99544.09;5060518;28;19939;-86
2023/10/31 11:37:26;;;;;;;;;;;;;;;18.69;48.42;99550.00;5061493;28;19943;-84
2023/10/31 11:40:12;;;;;;;;;;;;;;;18.72;47.81;99559.38;5063083;28;19955;-86
2023/10/31 11:42:38;;;;;;;;;;;;;;;18.70;47.53;99559.72;5058672;28;20019;-86
2023/10/31 11:45:03;;;;;;;;;;;;;;;18.65;47.86;99562.59;5056521;28;20459;-86
2023/10/31 11:47:45;;;;;;;;;;;;;;;18.71;47.52;99550.44;5060554;28;20023;-86
2023/10/31 11:50:10;;;;;;;;;;;;;;;18.70;47.00;99558.94;5055737;28;19951;-85
2023/10/31 11:52:36;;;;;;;;;;;;;;;18.67;47.21;99559.56;5070941;28;20399;-85
2023/10/31 11:55:02;;;;;;;;;;;;;;;18.70;47.10;99592.28;5057669;28;19980;-84
2023/10/31 11:57:28;;;;;;;;;;;;;;;18.70;46.89;99567.84;5060874;28;19948;-86
2023/10/31 11:59:54;;;;;;;;;;;;;;;18.70;47.30;99577.91;5060338;28;19979;-86
2023/10/31 12:02:20;;;;;;;;;;;;;;;18.71;47.02;99576.78;5058474;28;19923;-85
2023/10/31 12:04:46;;;;;;;;;;;;;;;18.73;46.58;99562.91;5059066;28;19924;-86
2023/10/31 12:07:11;;;;;;;;;;;;;;;18.77;46.80;99564.59;5056101;28;19969;-85
2023/10/31 12:09:46;;;;;;;;;;;;;;;18.86;47.07;99562.63;5057559;28;19969;-86
2023/10/31 12:12:12;;;;;;;;;;;;;;;18.97;46.96;99566.50;5052014;28;19921;-87
2023/10/31 12:14:37;;;;;;;;;;;;;;;19.18;46.23;99563.78;5054536;28;19931;-86
2023/10/31 12:17:09;;;;;;;;;;;;;;;19.32;46.50;99552.63;5051039;28;20216;-86
2023/10/31 12:19:35;;;;;;;;;;;;;;;19.43;45.37;99572.00;5057076;28;20494;-86
2023/10/31 12:22:01;;;;;;;;;;;;;;;19.42;45.32;99582.09;5056460;28;19916;-86
2023/10/31 12:24:27;;;;;;;;;;;;;;;19.45;45.20;99581.41;5060963;28;19956;-86
2023/10/31 12:26:52;;;;;;;;;;;;;;;19.58;45.20;99587.72;5061551;28;20026;-86
2023/10/31 12:29:18;;;;;;;;;;;;;;;19.69;45.29;99591.56;5059324;28;19927;-87
2023/10/31 12:31:54;;;;;;;;;;;;;;;19.69;44.95;99593.50;5062293;28;19927;-86
2023/10/31 12:34:20;;;;;;;;;;;;;;;19.64;45.32;99591.00;5059350;28;19923;-86
2023/10/31 12:36:49;;;;;;;;;;;;;;;19.69;45.08;99585.34;5058645;28;19920;-86
2023/10/31 12:39:16;;;;;;;;;;;;;;;19.69;45.12;99577.97;5059581;28;19933;-86
2023/10/31 12:41:42;;;;;;;;;;;;;;;19.73;45.00;99578.09;5056323;28;19917;-86